OK15 weather

Avian Country Estates Airport
Oolagah, Oklahoma, United States

Public forecast

Using degrees Fahrenheit for public forecast. Weather courtesy of forecast.io.

METAR (pilot weather report)

Closest report is Claremore Regional Airport, 12.0 nm (22.2 km) ESE. Retrieved 2019/04/20 15:35 UTC (22 minutes ago):

KGCM 201535Z AUTO 22005KT 10SM CLR 17/05 A3006 RMK AO2

TAF (pilot weather forecast)

Closest forecast is Tulsa International Airport, 13.9 nm (25.7 km) SW. Retrieved 2019/04/20 12:22 UTC (4 hours ago):

TAF KTUL 201120Z 2012/2112 25004KT P6SM SKC FM201600 19011KT P6SM SKC